createdAt,value
2023-01-13T00:02:15.488Z,8.71
2023-01-13T00:04:43.686Z,8.41
2023-01-13T00:07:14.267Z,8.48
2023-01-13T00:12:58.768Z,8.59
2023-01-13T00:16:42.080Z,8.34
2023-01-13T00:35:26.425Z,8.02
2023-01-13T00:57:15.926Z,7.69
2023-01-13T01:03:41.606Z,7.98
2023-01-13T01:09:57.776Z,7.70
2023-01-13T01:12:30.628Z,7.70
2023-01-13T01:14:58.659Z,7.66
2023-01-13T01:17:29.819Z,7.59
2023-01-13T01:19:59.587Z,7.72
2023-01-13T01:22:27.761Z,7.80
2023-01-13T01:24:55.665Z,7.91
2023-01-13T01:27:23.978Z,7.80
2023-01-13T01:29:54.049Z,7.82
2023-01-13T01:32:22.272Z,7.74
2023-01-13T01:34:52.553Z,7.74
2023-01-13T01:37:22.283Z,7.76
2023-01-13T01:39:58.496Z,7.77
2023-01-13T01:42:45.134Z,7.71
2023-01-13T01:45:18.924Z,7.72
2023-01-13T01:47:55.326Z,7.64
2023-01-13T01:50:24.529Z,7.62
2023-01-13T01:53:04.740Z,7.63
2023-01-13T01:55:37.987Z,7.65
2023-01-13T01:58:21.168Z,7.70
2023-01-13T02:00:52.008Z,7.65
2023-01-13T02:03:24.280Z,7.66
2023-01-13T02:05:54.598Z,7.70
2023-01-13T02:08:25.793Z,7.72
2023-01-13T02:10:57.768Z,7.71
2023-01-13T02:13:27.159Z,7.58
2023-01-13T02:16:04.845Z,7.77
2023-01-13T02:18:53.605Z,7.76
2023-01-13T02:21:49.039Z,7.82
2023-01-13T02:24:54.741Z,7.98
2023-01-13T02:28:00.533Z,7.99
2023-01-13T02:31:06.176Z,7.98
2023-01-13T02:33:55.999Z,7.82
2023-01-13T02:36:32.278Z,7.92
2023-01-13T02:39:05.509Z,7.96
2023-01-13T02:41:58.226Z,7.91
2023-01-13T02:44:30.118Z,7.93
2023-01-13T02:47:05.821Z,7.91
2023-01-13T02:49:41.168Z,7.76
2023-01-13T02:52:15.149Z,7.72
2023-01-13T02:54:48.841Z,7.68
2023-01-13T02:57:19.537Z,7.91
2023-01-13T02:59:49.708Z,7.96
2023-01-13T03:02:40.897Z,8.00
2023-01-13T03:05:39.043Z,7.83
2023-01-13T03:08:35.107Z,7.66
2023-01-13T03:11:31.562Z,7.72
2023-01-13T03:18:02.105Z,7.67
2023-01-13T03:24:27.584Z,7.36
2023-01-13T03:27:03.844Z,7.29
2023-01-13T03:29:36.386Z,7.20
2023-01-13T03:32:12.038Z,7.22
2023-01-13T03:34:49.777Z,7.21
2023-01-13T03:37:24.672Z,7.23
2023-01-13T03:40:02.948Z,7.17
2023-01-13T03:42:35.543Z,7.24
2023-01-13T03:45:10.463Z,7.20
2023-01-13T03:47:45.415Z,7.34
2023-01-13T03:50:22.781Z,7.15
2023-01-13T03:52:57.204Z,7.36
2023-01-13T03:55:33.021Z,7.35
2023-01-13T03:58:06.972Z,7.32
2023-01-13T04:00:44.063Z,7.40
2023-01-13T04:03:16.786Z,7.34
2023-01-13T04:05:52.844Z,7.44
2023-01-13T04:08:30.443Z,7.53
2023-01-13T04:11:06.021Z,7.55
2023-01-13T04:13:40.791Z,7.40
2023-01-13T04:16:13.169Z,7.42
2023-01-13T04:18:43.431Z,7.41
2023-01-13T04:21:12.971Z,7.42
2023-01-13T04:23:41.089Z,7.51
2023-01-13T04:26:09.930Z,7.61
2023-01-13T04:28:38.136Z,7.65
2023-01-13T04:31:07.711Z,7.66
2023-01-13T04:33:59.487Z,7.56
2023-01-13T04:36:53.019Z,7.60
2023-01-13T04:39:24.278Z,7.58
2023-01-13T04:42:02.595Z,7.67
2023-01-13T04:44:37.330Z,7.68
2023-01-13T04:47:08.398Z,7.54
2023-01-13T04:49:36.798Z,7.46
2023-01-13T04:52:08.021Z,7.39
2023-01-13T04:54:37.575Z,7.57
2023-01-13T04:57:05.924Z,7.54
2023-01-13T04:59:37.219Z,7.64
2023-01-13T05:02:10.066Z,7.68
2023-01-13T05:04:40.516Z,7.62
2023-01-13T05:07:14.753Z,7.76
2023-01-13T05:09:43.700Z,7.72
2023-01-13T05:12:29.949Z,7.81
2023-01-13T05:15:15.868Z,7.85
2023-01-13T05:17:44.401Z,7.93
2023-01-13T05:20:14.370Z,7.91
2023-01-13T05:23:03.857Z,7.87
2023-01-13T05:25:35.594Z,7.84
2023-01-13T05:28:03.801Z,7.90
2023-01-13T05:30:34.691Z,7.95
2023-01-13T05:33:02.722Z,7.93
2023-01-13T05:35:31.042Z,7.85
2023-01-13T05:38:04.095Z,7.78
2023-01-13T05:40:49.720Z,7.64
2023-01-13T05:43:21.269Z,7.53
2023-01-13T05:45:51.960Z,7.62
2023-01-13T05:48:25.161Z,7.55
2023-01-13T05:50:54.115Z,7.67
2023-01-13T05:53:24.416Z,7.55
2023-01-13T05:55:53.101Z,7.53
2023-01-13T05:58:23.057Z,7.65
2023-01-13T06:00:52.035Z,7.74
2023-01-13T06:03:23.940Z,7.74
2023-01-13T06:05:59.394Z,7.78
2023-01-13T06:08:29.461Z,7.78
2023-01-13T06:10:58.790Z,7.75
2023-01-13T06:13:27.207Z,7.80
2023-01-13T06:15:58.477Z,7.86
2023-01-13T06:18:27.660Z,7.76
2023-01-13T06:20:57.327Z,7.79
2023-01-13T06:23:25.915Z,7.83
2023-01-13T06:26:07.100Z,7.81
2023-01-13T06:28:36.629Z,7.80
2023-01-13T06:31:08.671Z,7.78
2023-01-13T06:33:40.158Z,7.68
2023-01-13T06:36:16.645Z,7.85
2023-01-13T06:39:25.348Z,7.84
2023-01-13T06:42:13.758Z,7.81
2023-01-13T06:44:50.351Z,7.95
2023-01-13T06:47:18.722Z,7.98
2023-01-13T06:49:56.402Z,7.94
2023-01-13T06:52:27.366Z,7.77
2023-01-13T06:54:57.005Z,7.82
2023-01-13T06:57:28.725Z,7.69
2023-01-13T06:59:56.784Z,7.43
2023-01-13T07:02:26.128Z,7.47
2023-01-13T07:04:54.691Z,7.42
2023-01-13T07:07:29.500Z,7.31
2023-01-13T07:10:02.453Z,7.18
2023-01-13T07:13:11.331Z,7.34
2023-01-13T07:15:39.487Z,7.16
2023-01-13T07:18:10.390Z,7.20
2023-01-13T07:20:38.858Z,7.07
2023-01-13T07:23:19.590Z,7.10
2023-01-13T07:25:47.506Z,7.03
2023-01-13T07:28:36.188Z,6.97
2023-01-13T07:31:05.024Z,6.96
2023-01-13T07:33:33.452Z,6.65
2023-01-13T07:36:06.008Z,6.72
2023-01-13T07:38:35.793Z,6.70
2023-01-13T07:41:24.246Z,6.60
2023-01-13T07:43:54.199Z,6.74
2023-01-13T07:46:22.505Z,6.72
2023-01-13T07:48:51.037Z,6.76
2023-01-13T07:51:21.746Z,6.74
2023-01-13T07:53:50.948Z,6.70
2023-01-13T07:56:25.174Z,6.76
2023-01-13T07:58:55.085Z,6.78
2023-01-13T08:01:23.248Z,6.79
2023-01-13T08:03:51.741Z,6.78
2023-01-13T08:06:20.835Z,6.81
2023-01-13T08:08:49.400Z,6.75
2023-01-13T08:11:17.793Z,6.67
2023-01-13T08:13:46.515Z,6.89
2023-01-13T08:16:17.856Z,6.82
2023-01-13T08:18:47.215Z,6.82
2023-01-13T08:21:16.315Z,6.93
2023-01-13T08:23:46.042Z,7.03
2023-01-13T08:26:17.398Z,7.09
2023-01-13T08:28:45.757Z,7.04
2023-01-13T08:31:20.174Z,7.05
2023-01-13T08:33:51.165Z,7.09
2023-01-13T08:36:19.597Z,7.03
2023-01-13T08:38:47.897Z,7.10
2023-01-13T08:41:38.783Z,7.12
2023-01-13T08:44:09.368Z,7.23
2023-01-13T08:46:38.819Z,7.09
2023-01-13T08:49:07.180Z,7.22
2023-01-13T08:51:35.649Z,7.20
2023-01-13T08:54:03.839Z,7.21
2023-01-13T08:56:35.283Z,7.31
2023-01-13T08:59:04.574Z,7.29
2023-01-13T09:01:34.319Z,7.32
2023-01-13T09:04:03.884Z,7.29
2023-01-13T09:06:34.876Z,7.42
2023-01-13T09:09:03.167Z,7.36
2023-01-13T09:11:52.226Z,7.28
2023-01-13T09:14:28.385Z,7.23
2023-01-13T09:16:56.522Z,7.34
2023-01-13T09:19:26.306Z,7.17
2023-01-13T09:21:55.824Z,6.97
2023-01-13T09:24:25.458Z,6.82
2023-01-13T09:26:54.283Z,6.99
2023-01-13T09:29:22.385Z,6.87
2023-01-13T09:31:53.117Z,6.86
2023-01-13T09:34:39.654Z,6.91
2023-01-13T09:37:09.851Z,6.79
2023-01-13T09:39:38.537Z,6.81
2023-01-13T09:42:36.970Z,6.96
2023-01-13T09:45:08.582Z,6.98
2023-01-13T09:47:44.840Z,6.96
2023-01-13T09:50:30.957Z,6.93
2023-01-13T09:53:01.123Z,6.94
2023-01-13T09:55:37.005Z,6.80
2023-01-13T09:58:14.412Z,6.93
2023-01-13T10:00:48.489Z,6.81
2023-01-13T10:03:25.506Z,6.96
2023-01-13T10:06:04.755Z,6.99
2023-01-13T10:08:36.879Z,7.02
2023-01-13T10:11:28.209Z,7.01
2023-01-13T10:13:59.980Z,6.91
2023-01-13T10:16:42.396Z,6.76
2023-01-13T10:19:19.690Z,6.87
2023-01-13T10:22:30.309Z,6.78
2023-01-13T10:25:22.655Z,6.79
2023-01-13T10:27:54.124Z,6.78
2023-01-13T10:30:31.529Z,6.75
2023-01-13T10:33:01.179Z,6.70
2023-01-13T10:35:56.913Z,6.81
2023-01-13T10:38:26.878Z,6.85
2023-01-13T10:40:58.038Z,6.90
2023-01-13T10:43:27.560Z,7.00
2023-01-13T10:46:06.165Z,6.98
2023-01-13T10:48:43.835Z,6.97
2023-01-13T10:51:24.211Z,6.95
2023-01-13T10:53:56.013Z,6.91
2023-01-13T10:56:31.348Z,7.04
2023-01-13T10:59:18.661Z,7.05
2023-01-13T11:02:01.227Z,6.93
2023-01-13T11:04:37.343Z,7.06
2023-01-13T11:07:18.854Z,7.01
2023-01-13T11:09:47.458Z,7.11
2023-01-13T11:25:44.570Z,6.97
2023-01-13T11:28:26.291Z,7.18
2023-01-13T11:31:08.334Z,7.07
2023-01-13T11:33:46.344Z,7.22
2023-01-13T11:36:22.965Z,7.30
2023-01-13T11:39:19.423Z,7.35
2023-01-13T11:42:10.940Z,7.32
2023-01-13T11:44:52.004Z,7.26
2023-01-13T11:47:29.155Z,7.29
2023-01-13T11:49:57.607Z,7.30
2023-01-13T11:52:40.035Z,7.46
2023-01-13T11:55:27.066Z,7.46
2023-01-13T11:58:21.629Z,7.64
2023-01-13T12:01:17.603Z,7.60
2023-01-13T12:03:52.855Z,7.62
2023-01-13T12:06:34.122Z,7.58
2023-01-13T12:09:23.417Z,7.61
2023-01-13T12:12:22.305Z,7.65
2023-01-13T12:15:39.989Z,7.61
2023-01-13T12:18:38.863Z,7.63
2023-01-13T12:22:01.510Z,7.72
2023-01-13T12:24:34.539Z,7.65
2023-01-13T12:27:14.234Z,7.88
2023-01-13T12:29:44.753Z,7.96
2023-01-13T12:32:23.802Z,8.03
2023-01-13T12:35:23.083Z,8.12
2023-01-13T12:38:01.717Z,8.00
2023-01-13T12:40:40.214Z,7.90
2023-01-13T12:43:35.012Z,8.00
2023-01-13T12:46:47.108Z,7.98
2023-01-13T12:49:29.852Z,7.98
2023-01-13T12:52:20.341Z,8.00
2023-01-13T12:55:22.891Z,8.02
2023-01-13T12:58:14.004Z,8.04
2023-01-13T13:01:00.311Z,8.12
2023-01-13T13:03:32.336Z,8.10
2023-01-13T13:06:08.095Z,7.90
2023-01-13T13:09:04.070Z,7.90
2023-01-13T13:11:59.727Z,7.98
2023-01-13T13:15:04.367Z,7.94
2023-01-13T13:17:43.443Z,7.99
2023-01-13T13:20:44.719Z,7.97
2023-01-13T13:23:37.864Z,8.00
2023-01-13T13:26:16.647Z,7.99
2023-01-13T13:28:55.235Z,8.30
2023-01-13T13:31:38.941Z,8.31
2023-01-13T13:34:27.276Z,8.26
2023-01-13T13:37:15.585Z,8.33
2023-01-13T13:40:02.953Z,8.28
2023-01-13T13:42:59.599Z,8.27
2023-01-13T13:45:48.023Z,8.32
2023-01-13T13:48:26.788Z,8.36
2023-01-13T13:51:00.244Z,8.31
2023-01-13T13:53:32.304Z,8.41
2023-01-13T13:56:04.043Z,8.32
2023-01-13T13:58:37.017Z,8.42
2023-01-13T14:01:08.295Z,8.47
2023-01-13T14:03:40.089Z,8.43
2023-01-13T14:06:20.522Z,8.46
2023-01-13T14:08:54.540Z,8.45
2023-01-13T14:11:37.006Z,8.44
2023-01-13T14:14:06.956Z,8.32
2023-01-13T14:16:39.238Z,8.43
2023-01-13T14:19:25.391Z,8.39
2023-01-13T14:21:54.889Z,8.36
2023-01-13T14:24:33.559Z,8.39
2023-01-13T14:27:17.848Z,8.29
2023-01-13T14:29:47.086Z,8.15
2023-01-13T14:32:21.213Z,8.29
2023-01-13T14:34:49.747Z,8.30
2023-01-13T14:37:33.893Z,8.41
2023-01-13T14:40:03.058Z,8.30
2023-01-13T14:42:35.580Z,8.16
2023-01-13T14:45:25.230Z,8.04
2023-01-13T14:47:57.278Z,7.90
2023-01-13T14:50:31.550Z,7.97
2023-01-13T14:53:04.992Z,7.95
2023-01-13T14:55:38.592Z,7.93
2023-01-13T14:58:29.640Z,8.02
2023-01-13T15:01:28.933Z,8.00
2023-01-13T15:04:22.974Z,7.87
2023-01-13T15:07:03.850Z,7.96
2023-01-13T15:09:45.470Z,8.10
2023-01-13T15:12:24.142Z,7.93
2023-01-13T15:14:57.750Z,7.88
2023-01-13T15:17:42.773Z,7.77
2023-01-13T15:20:16.370Z,7.74
2023-01-13T15:22:46.376Z,7.67
2023-01-13T15:25:16.039Z,7.52
2023-01-13T15:27:52.058Z,7.50
2023-01-13T15:30:25.536Z,7.50
2023-01-13T15:32:55.025Z,7.38
2023-01-13T15:35:24.522Z,7.52
2023-01-13T15:37:53.251Z,7.47
2023-01-13T15:40:23.355Z,7.49
2023-01-13T15:43:09.145Z,7.39
2023-01-13T15:45:59.115Z,7.53
2023-01-13T15:48:57.978Z,7.65
2023-01-13T15:51:38.955Z,7.70
2023-01-13T15:54:08.716Z,7.54
2023-01-13T15:57:10.665Z,7.58
2023-01-13T16:00:24.369Z,7.58
2023-01-13T16:03:40.416Z,7.56
2023-01-13T16:06:19.168Z,7.46
2023-01-13T16:08:49.466Z,7.43
2023-01-13T16:11:20.308Z,7.36
2023-01-13T16:13:52.048Z,7.36
2023-01-13T16:16:46.112Z,7.21
2023-01-13T16:19:20.632Z,7.31
2023-01-13T16:21:58.226Z,7.21
2023-01-13T16:24:27.435Z,7.23
2023-01-13T16:26:58.756Z,7.21
2023-01-13T16:29:27.106Z,7.14
2023-01-13T16:31:56.118Z,7.20
2023-01-13T16:34:25.095Z,7.03
2023-01-13T16:36:56.988Z,7.17
2023-01-13T16:39:25.678Z,7.08
2023-01-13T16:45:10.285Z,7.09
2023-01-13T16:47:40.216Z,7.21
2023-01-13T16:50:23.425Z,7.16
2023-01-13T16:53:00.213Z,7.28
2023-01-13T16:55:28.656Z,7.49
2023-01-13T16:57:56.772Z,7.43
2023-01-13T17:00:27.837Z,7.55
2023-01-13T17:02:58.917Z,7.61
2023-01-13T17:05:27.375Z,7.63
2023-01-13T17:07:57.821Z,7.61
2023-01-13T17:10:27.337Z,7.64
2023-01-13T17:13:14.737Z,7.70
2023-01-13T17:15:46.300Z,7.68
2023-01-13T17:18:16.910Z,7.77
2023-01-13T17:20:47.269Z,7.74
2023-01-13T17:23:17.107Z,7.76
2023-01-13T17:25:46.613Z,7.63
2023-01-13T17:28:16.227Z,7.66
2023-01-13T17:30:46.024Z,7.56
2023-01-13T17:33:13.867Z,7.53
2023-01-13T17:35:42.987Z,7.59
2023-01-13T17:38:11.149Z,7.53
2023-01-13T17:40:40.463Z,7.60
2023-01-13T17:43:08.457Z,7.67
2023-01-13T17:45:41.599Z,7.70
2023-01-13T17:48:09.776Z,7.79
2023-01-13T17:50:38.783Z,7.72
2023-01-13T17:53:06.990Z,7.79
2023-01-13T17:55:35.224Z,7.83
2023-01-13T17:58:05.741Z,7.87
2023-01-13T18:00:33.834Z,7.99
2023-01-13T18:03:01.925Z,7.90
2023-01-13T18:05:29.888Z,7.98
2023-01-13T18:07:58.041Z,8.02
2023-01-13T18:10:26.649Z,8.02
2023-01-13T18:12:54.796Z,8.11
2023-01-13T18:15:27.112Z,8.10
2023-01-13T18:17:55.067Z,8.15
2023-01-13T18:20:42.556Z,8.08
2023-01-13T18:23:35.133Z,8.11
2023-01-13T18:26:34.440Z,8.20
2023-01-13T18:29:02.757Z,8.22
2023-01-13T18:31:31.983Z,8.15
2023-01-13T18:34:21.891Z,8.20
2023-01-13T18:36:51.709Z,7.96
2023-01-13T18:39:20.058Z,8.09
2023-01-13T18:42:05.498Z,7.99
2023-01-13T18:44:33.859Z,8.04
2023-01-13T18:47:04.537Z,8.04
2023-01-13T18:49:32.762Z,7.96
2023-01-13T18:52:00.633Z,7.94
2023-01-13T18:54:28.867Z,7.82
2023-01-13T18:57:02.797Z,7.76
2023-01-13T18:59:33.152Z,7.81
2023-01-13T19:02:01.419Z,7.75
2023-01-13T19:04:32.628Z,7.55
2023-01-13T19:07:01.130Z,7.55
2023-01-13T19:09:29.806Z,7.68
2023-01-13T19:11:59.195Z,7.78
2023-01-13T19:14:37.714Z,7.75
2023-01-13T19:17:09.723Z,7.75
2023-01-13T19:19:43.790Z,7.83
2023-01-13T19:22:34.076Z,7.88
2023-01-13T19:25:28.930Z,7.93
2023-01-13T19:28:18.361Z,7.81
2023-01-13T19:30:46.853Z,7.49
2023-01-13T19:33:16.003Z,7.62
2023-01-13T19:35:46.384Z,7.64
2023-01-13T19:38:15.502Z,7.54
2023-01-13T19:40:43.766Z,7.62
2023-01-13T19:43:29.482Z,7.48
2023-01-13T19:45:57.570Z,7.56
2023-01-13T19:48:26.390Z,7.72
2023-01-13T19:50:55.982Z,7.70
2023-01-13T19:53:25.105Z,7.53
2023-01-13T19:55:55.335Z,7.49
2023-01-13T19:58:24.341Z,7.48
2023-01-13T20:00:54.471Z,7.48
2023-01-13T20:03:35.917Z,7.61
2023-01-13T20:06:21.529Z,7.75
2023-01-13T20:08:50.585Z,7.80
2023-01-13T20:11:41.615Z,7.80
2023-01-13T20:14:18.256Z,8.03
2023-01-13T20:16:56.817Z,7.93
2023-01-13T20:19:34.103Z,8.01
2023-01-13T20:22:04.639Z,7.78
2023-01-13T20:24:32.685Z,7.81
2023-01-13T20:27:01.261Z,7.79
2023-01-13T20:29:31.774Z,7.64
2023-01-13T20:31:59.770Z,7.45
2023-01-13T20:34:29.757Z,6.79
2023-01-13T20:36:57.872Z,6.54
2023-01-13T20:39:33.898Z,6.52
2023-01-13T20:42:21.242Z,6.50
2023-01-13T20:44:49.659Z,6.52
2023-01-13T20:47:18.697Z,6.54
2023-01-13T20:49:48.814Z,6.51
2023-01-13T20:52:18.016Z,6.81
2023-01-13T20:54:48.562Z,7.01
2023-01-13T20:57:17.598Z,6.99
2023-01-13T20:59:46.544Z,7.01
2023-01-13T21:02:16.579Z,6.91
2023-01-13T21:04:45.247Z,6.76
2023-01-13T21:07:13.506Z,6.64
2023-01-13T21:09:41.589Z,6.54
2023-01-13T21:12:33.525Z,6.53
2023-01-13T21:15:21.713Z,6.48
2023-01-13T21:18:09.794Z,6.41
2023-01-13T21:20:39.847Z,6.37
2023-01-13T21:23:15.512Z,6.22
2023-01-13T21:25:50.098Z,6.12
2023-01-13T21:28:20.117Z,6.13
2023-01-13T21:30:56.748Z,6.14
2023-01-13T21:33:24.722Z,6.16
2023-01-13T21:35:53.792Z,6.23
2023-01-13T21:38:22.865Z,6.28
2023-01-13T21:41:06.001Z,6.09
2023-01-13T21:43:53.829Z,6.04
2023-01-13T21:46:40.934Z,6.00
2023-01-13T21:49:08.868Z,5.95
2023-01-13T21:51:39.867Z,5.91
2023-01-13T21:54:08.086Z,5.78
2023-01-13T21:56:39.804Z,5.76
2023-01-13T21:59:11.340Z,5.69
2023-01-13T22:02:12.358Z,5.61
2023-01-13T22:04:27.542Z,5.63
2023-01-13T22:06:57.784Z,5.70
2023-01-13T22:09:25.888Z,5.90
2023-01-13T22:11:55.831Z,6.03
2023-01-13T22:14:25.552Z,6.16
2023-01-13T22:16:54.160Z,6.21
2023-01-13T22:19:24.378Z,6.00
2023-01-13T22:21:52.446Z,6.01
2023-01-13T22:24:25.972Z,6.00
2023-01-13T22:26:53.920Z,5.96
2023-01-13T22:29:24.214Z,5.79
2023-01-13T22:31:53.197Z,5.86
2023-01-13T22:34:21.332Z,5.82
2023-01-13T22:36:49.252Z,5.83
2023-01-13T22:39:17.771Z,5.76
2023-01-13T22:41:46.095Z,5.74
2023-01-13T22:44:16.417Z,5.75
2023-01-13T22:46:46.557Z,5.74
2023-01-13T22:49:16.061Z,5.78
2023-01-13T22:51:44.138Z,5.69
2023-01-13T22:54:13.024Z,5.84
2023-01-13T22:56:41.396Z,5.84
2023-01-13T22:59:14.506Z,5.83
2023-01-13T23:01:46.302Z,5.87
2023-01-13T23:04:18.037Z,5.86
2023-01-13T23:06:50.939Z,5.86
2023-01-13T23:09:22.205Z,5.80
2023-01-13T23:11:53.822Z,5.77
2023-01-13T23:14:23.070Z,5.92
2023-01-13T23:16:53.255Z,6.05
2023-01-13T23:19:22.853Z,6.06
2023-01-13T23:21:53.094Z,6.30
2023-01-13T23:24:28.637Z,6.32
2023-01-13T23:27:07.781Z,6.43
2023-01-13T23:29:36.906Z,6.42
2023-01-13T23:32:24.256Z,6.44
2023-01-13T23:34:52.497Z,6.43
2023-01-13T23:37:50.846Z,6.42
2023-01-13T23:40:18.906Z,6.37
2023-01-13T23:42:46.851Z,6.46
2023-01-13T23:45:14.930Z,6.46
2023-01-13T23:51:16.305Z,6.50
2023-01-13T23:53:46.077Z,6.51
2023-01-13T23:56:15.718Z,6.59
2023-01-13T23:58:44.723Z,6.47
